METAR Data
IDs: Format: Raw Decoded Include TAF

Data at: 2145 UTC 01 Dec 2021

METAR for:KDAY (Dayton/Cox Intl, OH, US)
Text:KDAY 012137Z 15011KT 3SM -RA BR SCT027 BKN043 OVC070 07/05 A2986 RMK AO2 RAB13 P0003 T00720050
Temperature: 7.2°C ( 45°F)
Dewpoint: 5.0°C ( 41°F) [RH = 86%]
Pressure (altimeter):29.86 inches Hg (1011.3 mb)
Winds:from the SSE (150 degrees) at 13 MPH (11 knots; 5.7 m/s)
Visibility: 3 sm ( 5 km)
Ceiling:4300 feet AGL
Clouds: scattered clouds at 2700 feet AGL, broken clouds at 4300 feet AGL, overcast cloud deck at 7000 feet AGL
Weather:-RA BR (light rain, mist)